createdAt,value
2023-02-25T00:02:01.636Z,96364.38
2023-02-25T00:04:31.805Z,96350.93
2023-02-25T00:07:00.927Z,96347.52
2023-02-25T00:09:30.490Z,96350.73
2023-02-25T00:11:58.582Z,96340.48
2023-02-25T00:14:27.621Z,96344.61
2023-02-25T00:16:56.348Z,96337.80
2023-02-25T00:19:25.890Z,96326.92
2023-02-25T00:21:57.268Z,96326.65
2023-02-25T00:24:25.678Z,96329.86
2023-02-25T00:26:54.268Z,96322.74
2023-02-25T00:29:23.180Z,96318.79
2023-02-25T00:31:51.372Z,96313.36
2023-02-25T00:34:20.015Z,96312.67
2023-02-25T00:36:48.434Z,96305.83
2023-02-25T00:39:16.991Z,96293.20
2023-02-25T00:41:45.204Z,96296.15
2023-02-25T00:44:13.335Z,96300.14
2023-02-25T00:46:41.478Z,96295.52
2023-02-25T00:49:11.172Z,96285.02
2023-02-25T00:51:40.246Z,96288.59
2023-02-25T00:54:08.622Z,96288.40
2023-02-25T00:56:37.641Z,96285.53
2023-02-25T00:59:06.291Z,96286.78
2023-02-25T01:01:35.017Z,96291.36
2023-02-25T01:04:03.402Z,96285.29
2023-02-25T01:06:34.748Z,96273.35
2023-02-25T01:09:05.520Z,96258.41
2023-02-25T01:11:36.012Z,96253.34
2023-02-25T01:14:11.993Z,96242.94
2023-02-25T01:16:41.034Z,96241.15
2023-02-25T01:19:14.100Z,96244.67
2023-02-25T01:21:45.460Z,96237.79
2023-02-25T01:24:28.261Z,96237.48
2023-02-25T01:26:59.593Z,96239.40
2023-02-25T01:29:32.238Z,96233.30
2023-02-25T01:32:03.681Z,96227.66
2023-02-25T01:34:33.410Z,96225.31
2023-02-25T01:37:04.792Z,96228.56
2023-02-25T01:39:34.203Z,96224.84
2023-02-25T01:42:10.255Z,96216.27
2023-02-25T01:45:17.939Z,96211.90
2023-02-25T01:47:52.194Z,96208.73
2023-02-25T01:50:24.545Z,96207.66
2023-02-25T01:52:57.333Z,96204.45
2023-02-25T01:55:25.850Z,96204.38
2023-02-25T01:57:54.204Z,96207.42
2023-02-25T02:00:24.087Z,96200.79
2023-02-25T02:02:52.799Z,96193.28
2023-02-25T02:05:25.970Z,96179.02
2023-02-25T02:07:54.469Z,96187.13
2023-02-25T02:10:22.644Z,96184.31
2023-02-25T02:12:50.818Z,96187.36
2023-02-25T02:15:19.186Z,96178.52
2023-02-25T02:17:56.805Z,96157.63
2023-02-25T02:20:26.715Z,96160.48
2023-02-25T02:23:06.080Z,96157.77
2023-02-25T02:26:01.704Z,96166.38
2023-02-25T02:28:53.064Z,96152.84
2023-02-25T02:31:54.800Z,96151.98
2023-02-25T02:34:28.803Z,96152.55
2023-02-25T02:37:25.335Z,96148.54
2023-02-25T02:40:05.968Z,96129.48
2023-02-25T02:42:54.539Z,96120.34
2023-02-25T02:45:35.036Z,96125.98
2023-02-25T02:48:09.933Z,96136.23
2023-02-25T02:50:52.194Z,96140.95
2023-02-25T02:53:29.181Z,96142.62
2023-02-25T02:56:01.325Z,96146.80
2023-02-25T02:58:38.943Z,96143.55
2023-02-25T03:01:18.231Z,96137.71
2023-02-25T03:03:51.876Z,96139.27
2023-02-25T03:06:29.415Z,96140.52
2023-02-25T03:09:06.394Z,96134.77
2023-02-25T03:11:36.016Z,96121.94
2023-02-25T03:14:04.770Z,96121.76
2023-02-25T03:16:41.309Z,96125.54
2023-02-25T03:19:18.687Z,96125.22
2023-02-25T03:21:53.027Z,96114.36
2023-02-25T03:24:25.543Z,96111.03
2023-02-25T03:26:53.794Z,96117.92
2023-02-25T03:29:26.981Z,96107.48
2023-02-25T03:32:10.541Z,96103.64
2023-02-25T03:34:47.554Z,96107.47
2023-02-25T03:37:29.550Z,96100.20
2023-02-25T03:40:01.305Z,96083.65
2023-02-25T03:42:33.885Z,96075.48
2023-02-25T03:45:05.351Z,96080.29
2023-02-25T03:47:37.522Z,96069.33
2023-02-25T03:50:26.586Z,96063.70
2023-02-25T03:52:58.882Z,96058.17
2023-02-25T03:55:48.052Z,96062.50
2023-02-25T03:58:16.861Z,96061.41
2023-02-25T04:00:49.714Z,96069.87
2023-02-25T04:03:18.548Z,96088.59
2023-02-25T04:05:46.721Z,96089.81
2023-02-25T04:08:16.182Z,96090.42
2023-02-25T04:10:47.861Z,96090.23
2023-02-25T04:13:17.422Z,96075.98
2023-02-25T04:15:45.946Z,96067.91
2023-02-25T04:18:14.317Z,96072.96
2023-02-25T04:20:43.194Z,96070.64
2023-02-25T04:23:14.518Z,96066.64
2023-02-25T04:25:43.961Z,96058.75
2023-02-25T04:28:12.420Z,96051.48
2023-02-25T04:30:41.040Z,96042.66
2023-02-25T04:33:12.138Z,96020.14
2023-02-25T04:35:40.719Z,96005.80
2023-02-25T04:38:09.588Z,96006.05
2023-02-25T04:40:38.365Z,96025.09
2023-02-25T04:43:06.520Z,96017.41
2023-02-25T04:45:34.664Z,96012.70
2023-02-25T04:48:03.736Z,95997.17
2023-02-25T04:50:32.227Z,96008.99
2023-02-25T04:53:05.043Z,96011.61
2023-02-25T04:55:36.112Z,96017.33
2023-02-25T04:58:04.452Z,96016.62
2023-02-25T05:00:33.353Z,96016.94
2023-02-25T05:03:01.734Z,96017.19
2023-02-25T05:05:30.162Z,95999.09
2023-02-25T05:07:58.482Z,95992.39
2023-02-25T05:10:26.722Z,95987.16
2023-02-25T05:12:55.011Z,95984.71
2023-02-25T05:15:23.389Z,95995.48
2023-02-25T05:17:51.690Z,96006.31
2023-02-25T05:20:20.131Z,96005.89
2023-02-25T05:22:48.322Z,96004.09
2023-02-25T05:25:17.107Z,95988.08
2023-02-25T05:27:45.496Z,95980.11
2023-02-25T05:30:14.800Z,95983.52
2023-02-25T05:32:43.284Z,95980.98
2023-02-25T05:35:12.409Z,95975.56
2023-02-25T05:37:40.824Z,95973.63
2023-02-25T05:40:14.282Z,95972.35
2023-02-25T05:42:42.756Z,95977.78
2023-02-25T05:45:11.614Z,95976.66
2023-02-25T05:47:40.034Z,95973.45
2023-02-25T05:50:09.206Z,95956.44
2023-02-25T05:52:38.001Z,95954.52
2023-02-25T05:55:09.530Z,95947.02
2023-02-25T05:57:37.905Z,95946.02
2023-02-25T06:00:10.068Z,95946.03
2023-02-25T06:02:44.595Z,95944.13
2023-02-25T06:05:14.129Z,95943.39
2023-02-25T06:07:43.184Z,95933.88
2023-02-25T06:10:13.166Z,95939.27
2023-02-25T06:12:41.611Z,95944.07
2023-02-25T06:15:11.305Z,95949.48
2023-02-25T06:17:40.368Z,95950.40
2023-02-25T06:20:09.720Z,95946.81
2023-02-25T06:22:38.069Z,95941.05
2023-02-25T06:25:06.995Z,95938.70
2023-02-25T06:27:35.358Z,95943.38
2023-02-25T06:30:04.698Z,95955.58
2023-02-25T06:32:32.985Z,95960.47
2023-02-25T06:35:01.433Z,95960.19
2023-02-25T06:37:29.568Z,95957.57
2023-02-25T06:39:57.515Z,95957.39
2023-02-25T06:42:25.722Z,95955.47
2023-02-25T06:44:53.862Z,95950.21
2023-02-25T06:47:23.224Z,95952.10
2023-02-25T06:49:51.527Z,95963.64
2023-02-25T06:52:19.724Z,95956.84
2023-02-25T06:54:47.882Z,95946.20
2023-02-25T06:57:16.181Z,95928.61
2023-02-25T06:59:44.242Z,95930.27
2023-02-25T07:02:13.244Z,95930.34
2023-02-25T07:04:43.946Z,95935.13
2023-02-25T07:07:12.458Z,95950.95
2023-02-25T07:09:40.769Z,95952.50
2023-02-25T07:12:09.649Z,95938.20
2023-02-25T07:14:38.072Z,95944.13
2023-02-25T07:17:06.770Z,95932.27
2023-02-25T07:19:35.316Z,95929.93
2023-02-25T07:22:03.840Z,95922.77
2023-02-25T07:24:32.241Z,95918.48
2023-02-25T07:27:00.211Z,95910.25
2023-02-25T07:29:28.414Z,95904.09
2023-02-25T07:31:56.977Z,95893.35
2023-02-25T07:34:25.206Z,95882.48
2023-02-25T07:36:53.571Z,95871.34
2023-02-25T07:39:21.800Z,95875.16
2023-02-25T07:41:50.396Z,95869.17
2023-02-25T07:44:21.415Z,95852.79
2023-02-25T07:46:49.528Z,95836.42
2023-02-25T07:49:17.884Z,95831.30
2023-02-25T07:51:46.793Z,95829.27
2023-02-25T07:54:16.297Z,95829.04
2023-02-25T07:56:46.118Z,95828.08
2023-02-25T07:59:14.599Z,95823.98
2023-02-25T08:01:44.448Z,95829.40
2023-02-25T08:04:13.277Z,95826.98
2023-02-25T08:06:42.134Z,95825.02
2023-02-25T08:09:12.511Z,95825.85
2023-02-25T08:11:42.998Z,95827.00
2023-02-25T08:14:12.250Z,95834.05
2023-02-25T08:16:40.937Z,95835.02
2023-02-25T08:19:09.719Z,95836.77
2023-02-25T08:21:40.660Z,95823.98
2023-02-25T08:24:09.742Z,95811.47
2023-02-25T08:26:39.082Z,95815.87
2023-02-25T08:29:07.972Z,95814.45
2023-02-25T08:31:36.608Z,95820.63
2023-02-25T08:34:05.250Z,95820.46
2023-02-25T08:36:34.073Z,95808.77
2023-02-25T08:39:02.792Z,95808.97
2023-02-25T08:41:31.567Z,95815.36
2023-02-25T08:44:01.652Z,95800.33
2023-02-25T08:46:33.915Z,95791.17
2023-02-25T08:49:03.067Z,95786.86
2023-02-25T08:51:35.467Z,95770.31
2023-02-25T08:54:09.236Z,95766.23
2023-02-25T08:56:38.225Z,95780.07
2023-02-25T08:59:06.517Z,95775.65
2023-02-25T09:01:47.008Z,95774.39
2023-02-25T09:04:18.331Z,95760.23
2023-02-25T09:06:49.813Z,95743.60
2023-02-25T09:09:20.239Z,95740.78
2023-02-25T09:11:49.383Z,95739.30
2023-02-25T09:14:18.873Z,95740.73
2023-02-25T09:16:48.750Z,95742.43
2023-02-25T09:19:18.674Z,95727.02
2023-02-25T09:21:48.432Z,95717.14
2023-02-25T09:24:18.164Z,95715.07
2023-02-25T09:26:48.121Z,95713.89
2023-02-25T09:29:17.246Z,95707.90
2023-02-25T09:31:45.754Z,95709.41
2023-02-25T09:34:14.465Z,95709.41
2023-02-25T09:36:43.656Z,95708.00
2023-02-25T09:39:13.567Z,95703.45
2023-02-25T09:41:49.331Z,95704.63
2023-02-25T09:44:23.136Z,95697.20
2023-02-25T09:46:57.473Z,95698.05
2023-02-25T09:49:42.833Z,95699.42
2023-02-25T09:52:22.833Z,95687.20
2023-02-25T09:55:04.271Z,95686.73
2023-02-25T09:57:37.192Z,95687.21
2023-02-25T10:00:22.971Z,95681.52
2023-02-25T10:03:02.039Z,95676.29
2023-02-25T10:05:49.785Z,95671.83
2023-02-25T10:08:21.366Z,95668.42
2023-02-25T10:11:10.322Z,95664.20
2023-02-25T10:14:16.571Z,95648.92
2023-02-25T10:16:59.993Z,95642.15
2023-02-25T10:19:58.174Z,95635.88
2023-02-25T10:22:36.724Z,95635.27
2023-02-25T10:25:12.553Z,95636.11
2023-02-25T10:28:13.870Z,95637.23
2023-02-25T10:30:57.608Z,95645.39
2023-02-25T10:33:28.282Z,95657.45
2023-02-25T10:36:08.021Z,95656.98
2023-02-25T10:38:42.230Z,95658.48
2023-02-25T10:41:11.875Z,95657.19
2023-02-25T10:43:41.433Z,95651.92
2023-02-25T10:46:35.413Z,95656.71
2023-02-25T10:49:23.434Z,95664.95
2023-02-25T10:52:15.622Z,95674.83
2023-02-25T10:54:50.847Z,95675.70
2023-02-25T10:57:26.126Z,95684.98
2023-02-25T11:00:04.645Z,95686.16
2023-02-25T11:02:42.060Z,95695.27
2023-02-25T11:05:38.861Z,95697.54
2023-02-25T11:08:24.733Z,95708.29
2023-02-25T11:11:14.722Z,95711.90
2023-02-25T11:13:43.690Z,95714.12
2023-02-25T11:16:14.741Z,95712.33
2023-02-25T11:18:43.596Z,95714.16
2023-02-25T11:21:13.875Z,95722.29
2023-02-25T11:23:42.537Z,95725.84
2023-02-25T11:26:17.804Z,95728.63
2023-02-25T11:28:50.233Z,95728.52
2023-02-25T11:31:30.838Z,95730.00
2023-02-25T11:34:03.620Z,95725.73
2023-02-25T11:36:39.379Z,95733.02
2023-02-25T11:39:16.758Z,95744.98
2023-02-25T11:41:48.507Z,95753.90
2023-02-25T11:44:23.508Z,95758.66
2023-02-25T11:47:07.343Z,95764.54
2023-02-25T11:50:07.922Z,95767.34
2023-02-25T11:52:36.023Z,95776.52
2023-02-25T11:55:19.911Z,95784.10
2023-02-25T11:58:23.200Z,95791.85
2023-02-25T12:01:09.445Z,95805.68
2023-02-25T12:03:49.757Z,95811.30
2023-02-25T12:06:49.416Z,95820.92
2023-02-25T12:09:45.140Z,95825.67
2023-02-25T12:12:35.175Z,95828.76
2023-02-25T12:15:18.825Z,95850.78
2023-02-25T12:18:14.214Z,95857.38
2023-02-25T12:21:01.259Z,95866.38
2023-02-25T12:23:38.687Z,95883.04
2023-02-25T12:26:33.698Z,95895.66
2023-02-25T12:29:28.150Z,95901.98
2023-02-25T12:32:18.872Z,95899.05
2023-02-25T12:35:23.948Z,95915.39
2023-02-25T12:38:14.130Z,95940.41
2023-02-25T12:41:17.137Z,95948.66
2023-02-25T12:43:51.492Z,95963.18
2023-02-25T12:46:34.857Z,95949.71
2023-02-25T12:49:16.158Z,95959.81
2023-02-25T12:51:57.902Z,95968.52
2023-02-25T12:54:39.238Z,95975.46
2023-02-25T12:57:32.203Z,95962.72
2023-02-25T13:00:28.238Z,95950.77
2023-02-25T13:03:00.798Z,95951.29
2023-02-25T13:06:04.667Z,95958.48
2023-02-25T13:09:10.696Z,95970.27
2023-02-25T13:12:10.715Z,95976.35
2023-02-25T13:14:47.076Z,95973.80
2023-02-25T13:17:43.662Z,95979.31
2023-02-25T13:20:40.149Z,95979.17
2023-02-25T13:23:36.556Z,95980.73
2023-02-25T13:26:10.707Z,95989.91
2023-02-25T13:29:00.181Z,95995.18
2023-02-25T13:31:54.441Z,95993.38
2023-02-25T13:35:00.510Z,95989.46
2023-02-25T13:37:31.601Z,95986.81
2023-02-25T13:40:26.966Z,96003.90
2023-02-25T13:43:09.352Z,96008.14
2023-02-25T13:45:57.515Z,96000.64
2023-02-25T13:48:47.173Z,95997.77
2023-02-25T13:52:00.170Z,96001.67
2023-02-25T13:54:35.138Z,96006.45
2023-02-25T13:57:23.582Z,96004.13
2023-02-25T13:59:57.865Z,95998.25
2023-02-25T14:02:35.286Z,96005.14
2023-02-25T14:05:26.231Z,95999.16
2023-02-25T14:08:39.572Z,95994.64
2023-02-25T14:11:45.292Z,95984.81
2023-02-25T14:14:46.336Z,95976.36
2023-02-25T14:17:39.005Z,95974.14
2023-02-25T14:20:28.620Z,95969.19
2023-02-25T14:23:04.612Z,95966.27
2023-02-25T14:25:52.638Z,95973.76
2023-02-25T14:28:59.449Z,95967.66
2023-02-25T14:31:44.656Z,95968.14
2023-02-25T14:34:35.429Z,95968.29
2023-02-25T14:37:32.490Z,95966.84
2023-02-25T14:40:22.364Z,95952.89
2023-02-25T14:42:58.318Z,95959.83
2023-02-25T14:45:36.531Z,95947.88
2023-02-25T14:48:17.284Z,95932.27
2023-02-25T14:50:49.288Z,95944.65
2023-02-25T14:53:52.308Z,95935.64
2023-02-25T14:56:43.500Z,95928.92
2023-02-25T14:59:28.900Z,95933.39
2023-02-25T15:02:12.876Z,95938.02
2023-02-25T15:04:41.124Z,95937.54
2023-02-25T15:07:21.189Z,95936.09
2023-02-25T15:10:05.169Z,95934.68
2023-02-25T15:12:39.648Z,95935.14
2023-02-25T15:15:28.779Z,95932.44
2023-02-25T15:18:12.581Z,95934.99
2023-02-25T15:20:42.638Z,95922.84
2023-02-25T15:23:12.837Z,95924.23
2023-02-25T15:25:43.856Z,95929.27
2023-02-25T15:28:30.689Z,95930.98
2023-02-25T15:30:58.953Z,95942.85
2023-02-25T15:33:35.039Z,95951.89
2023-02-25T15:36:15.855Z,95967.24
2023-02-25T15:38:44.360Z,95972.39
2023-02-25T15:41:41.039Z,95980.23
2023-02-25T15:44:09.394Z,95990.73
2023-02-25T15:46:40.039Z,95995.14
2023-02-25T15:49:10.628Z,95998.35
2023-02-25T15:51:52.556Z,96002.80
2023-02-25T15:54:30.186Z,96010.55
2023-02-25T15:57:01.857Z,96032.09
2023-02-25T15:59:48.801Z,96050.95
2023-02-25T16:02:29.385Z,96049.90
2023-02-25T16:05:10.005Z,96052.69
2023-02-25T16:07:51.436Z,96050.24
2023-02-25T16:10:48.753Z,96053.28
2023-02-25T16:13:29.635Z,96063.40
2023-02-25T16:15:59.571Z,96067.02
2023-02-25T16:18:45.393Z,96073.11
2023-02-25T16:21:27.699Z,96087.04
2023-02-25T16:23:57.863Z,96088.10
2023-02-25T16:26:35.583Z,96093.08
2023-02-25T16:29:28.089Z,96099.71
2023-02-25T16:32:23.390Z,96110.59
2023-02-25T16:35:20.628Z,96114.42
2023-02-25T16:38:03.047Z,96116.80
2023-02-25T16:40:41.352Z,96112.60
2023-02-25T16:43:21.642Z,96105.96
2023-02-25T16:46:02.986Z,96119.75
2023-02-25T16:48:39.781Z,96117.64
2023-02-25T16:51:23.819Z,96114.61
2023-02-25T16:53:58.677Z,96110.86
2023-02-25T16:56:30.745Z,96118.02
2023-02-25T16:59:00.544Z,96129.29
2023-02-25T17:01:30.801Z,96125.33
2023-02-25T17:04:20.273Z,96115.32
2023-02-25T17:07:07.623Z,96118.52
2023-02-25T17:09:36.045Z,96132.50
2023-02-25T17:12:04.760Z,96139.17
2023-02-25T17:14:33.086Z,96138.05
2023-02-25T17:17:01.407Z,96124.64
2023-02-25T17:19:29.908Z,96115.90
2023-02-25T17:21:59.501Z,96114.26
2023-02-25T17:24:31.818Z,96121.09
2023-02-25T17:27:01.084Z,96132.92
2023-02-25T17:29:36.192Z,96141.96
2023-02-25T17:32:20.000Z,96154.96
2023-02-25T17:34:50.586Z,96168.16
2023-02-25T17:37:19.776Z,96174.26
2023-02-25T17:39:49.074Z,96173.03
2023-02-25T17:42:30.485Z,96168.48
2023-02-25T17:45:00.793Z,96154.02
2023-02-25T17:47:34.848Z,96153.09
2023-02-25T17:50:25.842Z,96156.63
2023-02-25T17:52:54.357Z,96159.81
2023-02-25T17:55:31.476Z,96162.16
2023-02-25T17:58:03.517Z,96168.10
2023-02-25T18:00:34.654Z,96178.34
2023-02-25T18:03:20.301Z,96175.15
2023-02-25T18:05:49.989Z,96169.71
2023-02-25T18:08:21.488Z,96163.48
2023-02-25T18:10:55.374Z,96167.65
2023-02-25T18:13:42.353Z,96172.17
2023-02-25T18:16:32.702Z,96167.05
2023-02-25T18:19:01.819Z,96174.09
2023-02-25T18:21:30.398Z,96172.27
2023-02-25T18:24:00.642Z,96172.89
2023-02-25T18:26:28.794Z,96184.21
2023-02-25T18:29:00.104Z,96193.11
2023-02-25T18:31:28.586Z,96194.39
2023-02-25T18:33:56.923Z,96198.98
2023-02-25T18:36:28.223Z,96207.21
2023-02-25T18:39:02.440Z,96209.55
2023-02-25T18:41:30.991Z,96212.05
2023-02-25T18:44:00.894Z,96212.27
2023-02-25T18:46:29.804Z,96216.78
2023-02-25T18:48:58.462Z,96208.17
2023-02-25T18:51:27.039Z,96209.96
2023-02-25T18:53:55.692Z,96212.58
2023-02-25T18:56:24.230Z,96207.09
2023-02-25T18:58:55.019Z,96220.78
2023-02-25T19:01:27.751Z,96230.48
2023-02-25T19:04:00.344Z,96228.59
2023-02-25T19:06:31.071Z,96227.06
2023-02-25T19:09:00.304Z,96225.84
2023-02-25T19:11:33.732Z,96225.46
2023-02-25T19:14:03.205Z,96235.61
2023-02-25T19:16:31.761Z,96237.45
2023-02-25T19:18:59.694Z,96231.84
2023-02-25T19:21:28.305Z,96232.13
2023-02-25T19:23:56.843Z,96239.14
2023-02-25T19:26:26.228Z,96249.65
2023-02-25T19:28:54.760Z,96253.03
2023-02-25T19:31:22.896Z,96248.80
2023-02-25T19:33:51.324Z,96249.22
2023-02-25T19:36:19.521Z,96248.80
2023-02-25T19:38:47.853Z,96252.09
2023-02-25T19:41:16.256Z,96249.31
2023-02-25T19:43:44.541Z,96233.61
2023-02-25T19:46:17.578Z,96224.81
2023-02-25T19:48:46.358Z,96213.98
2023-02-25T19:51:14.865Z,96201.95
2023-02-25T19:53:46.544Z,96193.77
2023-02-25T19:56:14.746Z,96212.74
2023-02-25T19:58:42.952Z,96227.70
2023-02-25T20:01:11.203Z,96225.16
2023-02-25T20:03:39.527Z,96226.09
2023-02-25T20:06:13.224Z,96231.46
2023-02-25T20:08:42.908Z,96235.27
2023-02-25T20:11:12.646Z,96222.61
2023-02-25T20:13:42.432Z,96209.42
2023-02-25T20:16:10.627Z,96200.89
2023-02-25T20:18:39.147Z,96213.43
2023-02-25T20:21:07.578Z,96221.98
2023-02-25T20:23:37.343Z,96220.73
2023-02-25T20:26:09.618Z,96219.27
2023-02-25T20:28:38.488Z,96209.30
2023-02-25T20:31:09.455Z,96212.74
2023-02-25T20:33:38.420Z,96227.80
2023-02-25T20:36:23.871Z,96237.59
2023-02-25T20:39:16.781Z,96234.59
2023-02-25T20:41:46.684Z,96234.35
2023-02-25T20:44:16.847Z,96229.77
2023-02-25T20:46:45.117Z,96226.41
2023-02-25T20:49:19.917Z,96221.95
2023-02-25T20:51:49.296Z,96231.99
2023-02-25T20:54:19.278Z,96235.81
2023-02-25T20:56:48.967Z,96233.94
2023-02-25T20:59:19.014Z,96242.09
2023-02-25T21:01:47.261Z,96245.56
2023-02-25T21:04:16.109Z,96257.16
2023-02-25T21:06:44.501Z,96268.60
2023-02-25T21:09:13.322Z,96273.60
2023-02-25T21:11:42.703Z,96281.06
2023-02-25T21:14:11.289Z,96285.89
2023-02-25T21:16:39.546Z,96290.56
2023-02-25T21:19:08.637Z,96299.12
2023-02-25T21:21:37.510Z,96306.29
2023-02-25T21:24:07.746Z,96302.41
2023-02-25T21:26:39.577Z,96301.48
2023-02-25T21:29:08.819Z,96304.69
2023-02-25T21:31:37.852Z,96308.41
2023-02-25T21:34:09.451Z,96311.11
2023-02-25T21:36:38.374Z,96313.88
2023-02-25T21:39:07.075Z,96315.14
2023-02-25T21:41:36.725Z,96310.73
2023-02-25T21:44:05.289Z,96304.11
2023-02-25T21:46:33.712Z,96305.67
2023-02-25T21:49:01.909Z,96307.59
2023-02-25T21:51:30.145Z,96313.83
2023-02-25T21:54:00.309Z,96317.48
2023-02-25T21:56:29.840Z,96321.96
2023-02-25T21:59:00.401Z,96328.17
2023-02-25T22:01:32.643Z,96333.02
2023-02-25T22:04:01.264Z,96336.63
2023-02-25T22:06:29.874Z,96330.23
2023-02-25T22:08:59.190Z,96331.96
2023-02-25T22:11:31.430Z,96333.21
2023-02-25T22:14:01.687Z,96335.33
2023-02-25T22:16:30.160Z,96337.73
2023-02-25T22:18:59.182Z,96341.14
2023-02-25T22:21:30.086Z,96345.59
2023-02-25T22:24:01.144Z,96349.51
2023-02-25T22:26:32.301Z,96348.73
2023-02-25T22:29:03.097Z,96344.30
2023-02-25T22:31:33.116Z,96345.73
2023-02-25T22:34:02.826Z,96344.13
2023-02-25T22:36:31.271Z,96342.07
2023-02-25T22:38:59.353Z,96342.99
2023-02-25T22:41:29.595Z,96345.79
2023-02-25T22:43:58.871Z,96344.92
2023-02-25T22:46:32.231Z,96347.20
2023-02-25T22:49:00.580Z,96352.35
2023-02-25T22:51:32.428Z,96353.20
2023-02-25T22:54:01.122Z,96354.27
2023-02-25T22:56:29.478Z,96351.06
2023-02-25T22:58:57.657Z,96351.77
2023-02-25T23:01:26.720Z,96353.30
2023-02-25T23:03:56.309Z,96351.23
2023-02-25T23:06:42.132Z,96345.48
2023-02-25T23:09:15.072Z,96341.86
2023-02-25T23:11:44.470Z,96338.10
2023-02-25T23:14:14.507Z,96331.92
2023-02-25T23:16:45.739Z,96328.14
2023-02-25T23:19:17.251Z,96327.27
2023-02-25T23:21:46.244Z,96324.51
2023-02-25T23:24:16.647Z,96321.92
2023-02-25T23:26:46.602Z,96325.02
2023-02-25T23:29:15.259Z,96325.73
2023-02-25T23:31:47.253Z,96331.14
2023-02-25T23:34:23.310Z,96331.20
2023-02-25T23:36:55.919Z,96333.33
2023-02-25T23:39:24.969Z,96333.54
2023-02-25T23:41:53.253Z,96335.27
2023-02-25T23:44:21.974Z,96334.07
2023-02-25T23:46:51.475Z,96342.02
2023-02-25T23:49:19.753Z,96346.48
2023-02-25T23:51:48.933Z,96350.45
2023-02-25T23:54:22.484Z,96350.61
2023-02-25T23:56:50.795Z,96350.31
2023-02-25T23:59:22.329Z,96350.75
